Airfield :
LOGIN :

Register | Disclaimer

   EN    FR    IT 

 










Legend :    VFR   Marginal VFR   IFR   Intensive IFR   Very Intensive IFR
Visi :
Ceiling :
>= 8 km
>= 3000ft
5 to 8 km
1000 to 3000 ft
1500m to 5 km
500 to 1000 ft
800 to 1500m
200 to 500 ft
< 800m
< 200 ft
Symbols :   Thunderstorms  Fog  Heavy snow  Heavy precipitations  Wind > 20 kt
SIGMETs :     Misc.  Thunderstorms  Icing  Turbulence  Mountain Waves  Volcanic Ashes






- Airport Elevation : 11 ft
- IATA code : SXL


EISG - Sligo

CURRENT METAR :
  • 161800Z 23021G35KT 7000 FEW016 SCT021 SCT027 06/00 Q0980

EXPIRED METARs :
  • 161730Z 24025G37KT 9000 SCT018 SCT023 BKN036 06/01 Q0979
  • 161700Z 23017G29KT 5000 SCT018 SCT022 BKN042 06/04 Q0979
  • 161630Z 23020KT 8000 FEW022 06/02 Q0978
  • 161600Z 22024G38KT 7000 FEW017 SCT022 SCT031 05/02 Q0978
  • 161530Z 24025G39KT 9999 FEW021 SCT031 BKN041 07/02 Q0977

TAF TAF EISG
Valid from the 16 at 18:00 until the 17 at 03:00 UTC


161700Z 1618/1703 22020G30KT 9999 SCT025 BKN040
TEMPO 1618/1624 23030G48KT SHRA SCT018CB
PROB40
TEMPO 1618/1621 4000 SHRAGS BKN009
BECMG 1700/1702 25020G30KT
TEMPO 1700/1703 25025G40KT SHRA SCT012 SCT018CB



MET'MAP, your aeronautical weather chart ! - Copyright ORBIFLY December 2007 - Disclaimer

ORBIFLY MET'MAP TEAM :

Programming & Development : Alexandra Zaïnal
Concept & original design : Baudouin d'Aumeries
Assistance for programming : Marc-Olivier Méhu
Technical & hardware support : Manuel Goepfert

Contact : metmap@orbifly.com




SOURCES & CREDITS :

   NOAA